WetterOnline ( https://www.wetteronline.de )

Wetter aktuell Salzburg

Aktuelles Wetter: Salzburg Flughafen (450m)

6-stündlich | Neueste Meldungen
Ortszeit Temperatur Wetter
Sa, 31.10. 1:00 9.1° C wolkig
Fr, 30.10. 19:00 10.0° C bewölkt
Fr, 30.10. 13:00 10.3° C leichte Schauer
Fr, 30.10. 7:00 7.6° C leichter Regen
Fr, 30.10. 1:00 6.7° C Regen
Do, 29.10. 19:00 7.9° C leichter Regen
Do, 29.10. 13:00 7.9° C leichte Schauer
Do, 29.10. 7:00 7.3° C leichter Regen
Ortszeit Temperatur Wetter
Sa, 31.10. 6:00 8.6° C bewölkt
Sa, 31.10. 5:50 9° C bewölkt
Sa, 31.10. 5:20 8° C bewölkt
Sa, 31.10. 5:00 8.0° C bewölkt
Sa, 31.10. 4:50 8° C bewölkt
Sa, 31.10. 4:20 8° C bewölkt
Sa, 31.10. 4:00 7.2° C wolkig
Sa, 31.10. 3:20 7° C bewölkt
Sa, 31.10. 3:00 7.0° C Nebelschwaden
Sa, 31.10. 2:20 8° C Nebelschwaden
Ortszeit Relative Feuchte Sichtweite
Sa, 31.10. 1:00 97% 30 km
Fr, 30.10. 19:00 97% 30 km
Fr, 30.10. 13:00 91% 45 km
Fr, 30.10. 7:00 94% 26 km
Fr, 30.10. 1:00 97% 10 km
Do, 29.10. 19:00 97% 16 km
Do, 29.10. 13:00 92% 12 km
Do, 29.10. 7:00 86% 50 km
Ortszeit Relative Feuchte Sichtweite
Sa, 31.10. 6:00 97% 35 km
Sa, 31.10. 5:50 93% >10 km
Sa, 31.10. 5:20 100% >10 km
Sa, 31.10. 5:00 99% 40 km
Sa, 31.10. 4:50 100% >10 km
Sa, 31.10. 4:20 100% >10 km
Sa, 31.10. 4:00 100% 15 km
Sa, 31.10. 3:20 100% 7 km
Sa, 31.10. 3:00 100% 0.7 km
Sa, 31.10. 2:20 100% 8 km
Ortszeit Niederschlagsmenge Niederschlagsart
Sa, 31.10. 1:00 keine Meldung -
Fr, 30.10. 19:00 2 l/m2 in 12 Std. -
Fr, 30.10. 13:00 2 l/m2 in 6 Std. -
Fr, 30.10. 7:00 27 l/m2 in 12 Std. -
Fr, 30.10. 1:00 18 l/m2 in 6 Std. -
Do, 29.10. 19:00 33 l/m2 in 12 Std. -
Do, 29.10. 13:00 8 l/m2 in 6 Std. -
Do, 29.10. 7:00 2 l/m2 in 12 Std. -
Ortszeit Niederschlagsmenge Niederschlagsart
Sa, 31.10. 6:00 0.0 l/m2 in 1 Std. -
Sa, 31.10. 5:50 keine Meldung -
Sa, 31.10. 5:20 keine Meldung -
Sa, 31.10. 5:00 0.0 l/m2 in 1 Std. -
Sa, 31.10. 4:50 keine Meldung -
Sa, 31.10. 4:20 keine Meldung -
Sa, 31.10. 4:00 0.0 l/m2 in 1 Std. -
Sa, 31.10. 3:20 keine Meldung -
Sa, 31.10. 3:00 0.0 l/m2 in 1 Std. -
Sa, 31.10. 2:20 keine Meldung -
Ortszeit Stärke Spitze Richtung
km/h Bft. km/h Grad Sektor
Sa, 31.10. 1:00 7 2 - - -
Fr, 30.10. 19:00 7 2 - - -
Fr, 30.10. 13:00 11 2 - 150° SO
Fr, 30.10. 7:00 11 2 - 150° SO
Fr, 30.10. 1:00 14 3 - 150° SO
Do, 29.10. 19:00 11 2 - - -
Do, 29.10. 13:00 14 3 - 150° SO
Do, 29.10. 7:00 18 3 - 150° SO
Ortszeit Stärke Spitze Richtung
km/h Bft. km/h Grad Sektor
Sa, 31.10. 6:00 7 2 - - -
Sa, 31.10. 5:50 7 2 - 170° S
Sa, 31.10. 5:20 7 2 - 170° S
Sa, 31.10. 5:00 7 2 - - -
Sa, 31.10. 4:50 7 2 - 170° S
Sa, 31.10. 4:20 6 1 - 180° S
Sa, 31.10. 4:00 7 2 - - -
Sa, 31.10. 3:20 6 1 - 150° SO
Sa, 31.10. 3:00 7 2 - - -
Sa, 31.10. 2:20 6 1 - 190° S
Ortszeit Untergrenze Bedeckung Gattung
total tief tief mittel hoch
Sa, 31.10. 1:00 960 m 6/8 5/8 - - -
Fr, 30.10. 19:00 1140 m 7/8 5/8 Sc - -
Fr, 30.10. 13:00 150 m 8/8 6/8 St - -
Fr, 30.10. 7:00 180 m 8/8 6/8 St - -
Fr, 30.10. 1:00 720 m 8/8 5/8 - - -
Do, 29.10. 19:00 300 m 8/8 6/8 St - -
Do, 29.10. 13:00 120 m 8/8 6/8 St - -
Do, 29.10. 7:00 240 m 8/8 6/8 St - -
Ortszeit Bedeckungsgrad in Achtel und Wolkenuntergrenze
Sa, 31.10. 6:00 1(750m) 6(960m)
Sa, 31.10. 5:50 1-2(750m) 5-7(960m)
Sa, 31.10. 5:20 1-2(780m) 5-7(960m)
Sa, 31.10. 5:00 1(720m) 6(900m)
Sa, 31.10. 4:50 1-2(720m) 5-7(900m)
Sa, 31.10. 4:20 1-2(720m) 5-7(900m)
Sa, 31.10. 4:00 1(780m) 5(900m)
Sa, 31.10. 3:20 1-2(780m) 5-7(840m)
Sa, 31.10. 3:00 1(780m) 5(900m)
Sa, 31.10. 2:20 1-2(900m) 3-4(1140m)
Ortszeit Luftdruck NN (hPa) Tendenz (hPa in 3 Std.)
Sa, 31.10. 1:00 1028 + 0,1
Fr, 30.10. 19:00 1026 + 1,0
Fr, 30.10. 13:00 1025 - 0,3
Fr, 30.10. 7:00 1025 0,0
Fr, 30.10. 1:00 1026 - 0,3
Do, 29.10. 19:00 1024 + 1,5
Do, 29.10. 13:00 1022 + 0,1
Do, 29.10. 7:00 1019 + 0,1
Ortszeit Luftdruck NN (hPa) Tendenz (hPa in 3 Std.)
Sa, 31.10. 6:00 1028 0,0
Sa, 31.10. 5:50 1027 keine Meldung
Sa, 31.10. 5:20 1027 keine Meldung
Sa, 31.10. 5:00 1028 - 0,2
Sa, 31.10. 4:50 1027 keine Meldung
Sa, 31.10. 4:20 1027 keine Meldung
Sa, 31.10. 4:00 1028 - 0,5
Sa, 31.10. 3:20 1027 keine Meldung
Sa, 31.10. 3:00 1028 - 0,1
Sa, 31.10. 2:20 1027 keine Meldung
Ortszeit Schneehöhe (cm)
Sa, 31.10. 1:00 -
Fr, 30.10. 19:00 -
Fr, 30.10. 13:00 -
Fr, 30.10. 7:00 0
Fr, 30.10. 1:00 -
Do, 29.10. 19:00 -
Do, 29.10. 13:00 -
Do, 29.10. 7:00 0
Ortszeit Schneehöhe (cm)
Sa, 31.10. 6:00 -
Sa, 31.10. 5:50 -
Sa, 31.10. 5:20 -
Sa, 31.10. 5:00 -
Sa, 31.10. 4:50 -
Sa, 31.10. 4:20 -
Sa, 31.10. 4:00 -
Sa, 31.10. 3:20 -
Sa, 31.10. 3:00 -
Sa, 31.10. 2:20 -
Link zu dieser Seite / Seite empfehlen

Das Wetter in ...